createdAt,value
2018-08-12T00:01:32.009Z,7.63
2018-08-12T00:03:59.244Z,7.73
2018-08-12T00:06:26.504Z,6.90
2018-08-12T00:08:53.768Z,7.03
2018-08-12T00:11:20.997Z,6.47
2018-08-12T00:13:48.249Z,7.60
2018-08-12T00:16:15.496Z,6.70
2018-08-12T00:18:42.736Z,7.30
2018-08-12T00:21:10.008Z,7.17
2018-08-12T00:23:37.276Z,6.97
2018-08-12T00:26:04.505Z,7.07
2018-08-12T00:28:31.736Z,6.60
2018-08-12T00:30:59.036Z,6.57
2018-08-12T00:33:26.267Z,6.90
2018-08-12T00:35:53.537Z,6.50
2018-08-12T00:38:20.807Z,7.10
2018-08-12T00:40:48.073Z,6.30
2018-08-12T00:43:15.552Z,6.40
2018-08-12T00:45:42.786Z,6.00
2018-08-12T00:48:10.032Z,6.40
2018-08-12T00:50:37.285Z,8.23
2018-08-12T00:53:04.516Z,7.13
2018-08-12T00:55:31.808Z,6.00
2018-08-12T00:57:59.104Z,6.40
2018-08-12T01:00:26.365Z,6.37
2018-08-12T01:02:53.601Z,6.73
2018-08-12T01:05:20.842Z,6.80
2018-08-12T01:07:49.033Z,6.83
2018-08-12T01:10:16.917Z,7.30
2018-08-12T01:12:44.410Z,6.40
2018-08-12T01:15:13.243Z,7.60
2018-08-12T01:17:40.592Z,6.67
2018-08-12T01:20:08.685Z,7.00
2018-08-12T01:22:36.211Z,7.10
2018-08-12T01:25:03.571Z,7.10
2018-08-12T01:27:30.820Z,7.77
2018-08-12T01:29:58.097Z,8.07
2018-08-12T01:32:25.359Z,6.43
2018-08-12T01:34:52.589Z,7.40
2018-08-12T01:37:19.824Z,6.20
2018-08-12T01:39:47.108Z,7.10
2018-08-12T01:42:14.337Z,7.07
2018-08-12T01:44:41.575Z,7.20
2018-08-12T01:47:08.848Z,7.70
2018-08-12T01:49:36.063Z,6.80
2018-08-12T01:52:03.370Z,7.10
2018-08-12T01:54:30.608Z,7.50
2018-08-12T01:56:57.949Z,7.37
2018-08-12T01:59:25.185Z,7.30
2018-08-12T02:01:52.419Z,6.90
2018-08-12T02:04:19.639Z,7.40
2018-08-12T02:06:46.863Z,7.20
2018-08-12T02:09:14.116Z,7.40
2018-08-12T02:11:41.349Z,7.60
2018-08-12T02:14:09.151Z,6.70
2018-08-12T02:16:36.884Z,7.73
2018-08-12T02:19:04.139Z,7.87
2018-08-12T02:21:31.404Z,8.07
2018-08-12T02:23:58.629Z,7.63
2018-08-12T02:26:25.887Z,8.10
2018-08-12T02:28:53.157Z,7.93
2018-08-12T02:31:20.416Z,7.27
2018-08-12T02:33:47.653Z,7.57
2018-08-12T02:36:14.936Z,7.40
2018-08-12T02:38:42.160Z,7.83
2018-08-12T02:41:09.388Z,7.10
2018-08-12T02:43:36.634Z,7.70
2018-08-12T02:46:03.910Z,7.60
2018-08-12T02:48:31.279Z,7.83
2018-08-12T02:50:58.520Z,7.63
2018-08-12T02:53:25.796Z,7.80
2018-08-12T02:55:53.035Z,6.70
2018-08-12T02:58:20.891Z,7.43
2018-08-12T03:00:48.372Z,8.30
2018-08-12T03:03:15.637Z,7.27
2018-08-12T03:05:43.148Z,6.50
2018-08-12T03:08:10.717Z,7.47
2018-08-12T03:10:37.948Z,7.80
2018-08-12T03:13:05.217Z,7.43
2018-08-12T03:15:32.460Z,6.70
2018-08-12T03:17:59.817Z,7.17
2018-08-12T03:20:27.052Z,6.70
2018-08-12T03:22:54.287Z,7.60
2018-08-12T03:25:21.528Z,6.80
2018-08-12T03:27:48.775Z,6.17
2018-08-12T03:30:16.068Z,6.77
2018-08-12T03:32:43.251Z,6.50
2018-08-12T03:35:10.688Z,6.30
2018-08-12T03:37:37.939Z,5.03
2018-08-12T03:40:06.308Z,5.03
2018-08-12T03:42:33.572Z,5.30
2018-08-12T03:45:00.836Z,5.20
2018-08-12T03:47:28.071Z,5.40
2018-08-12T03:49:55.297Z,4.87
2018-08-12T03:52:22.582Z,5.13
2018-08-12T03:54:49.846Z,4.60
2018-08-12T03:57:17.097Z,4.00
2018-08-12T03:59:44.362Z,3.90
2018-08-12T04:02:11.740Z,3.40
2018-08-12T04:04:38.961Z,3.60
2018-08-12T04:07:06.187Z,2.90
2018-08-12T04:09:33.416Z,3.07
2018-08-12T04:12:00.655Z,3.00
2018-08-12T04:14:27.872Z,2.73
2018-08-12T04:17:00.332Z,2.70
2018-08-12T04:19:28.521Z,3.30
2018-08-12T04:21:55.777Z,2.70
2018-08-12T04:24:23.229Z,3.30
2018-08-12T04:26:50.776Z,2.97
2018-08-12T04:29:18.000Z,3.17
2018-08-12T04:31:45.248Z,3.00
2018-08-12T04:34:12.491Z,2.60
2018-08-12T04:36:39.708Z,2.50
2018-08-12T04:39:08.057Z,2.77
2018-08-12T04:41:35.276Z,3.13
2018-08-12T04:44:02.565Z,2.97
2018-08-12T04:46:29.798Z,2.27
2018-08-12T04:48:57.031Z,2.77
2018-08-12T04:51:24.307Z,2.80
2018-08-12T04:53:51.537Z,2.43
2018-08-12T04:56:18.804Z,2.70
2018-08-12T04:58:46.084Z,3.20
2018-08-12T05:01:13.313Z,2.43
2018-08-12T05:03:40.565Z,2.40
2018-08-12T05:06:07.842Z,2.23
2018-08-12T05:08:35.047Z,2.43
2018-08-12T05:11:02.292Z,2.17
2018-08-12T05:13:29.577Z,1.87
2018-08-12T05:15:56.854Z,2.10
2018-08-12T05:18:24.180Z,2.23
2018-08-12T05:20:51.453Z,2.33
2018-08-12T05:23:18.665Z,2.57
2018-08-12T05:25:45.944Z,2.43
2018-08-12T05:28:13.191Z,2.60
2018-08-12T05:30:40.436Z,2.20
2018-08-12T05:33:07.704Z,2.40
2018-08-12T05:35:34.932Z,2.40
2018-08-12T05:38:02.305Z,2.20
2018-08-12T05:40:29.650Z,2.23
2018-08-12T05:42:56.920Z,2.23
2018-08-12T05:45:24.164Z,2.17
2018-08-12T05:47:51.397Z,2.47
2018-08-12T05:50:18.652Z,2.90
2018-08-12T05:52:45.940Z,2.40
2018-08-12T05:55:13.210Z,2.43
2018-08-12T05:57:40.452Z,2.63
2018-08-12T06:00:09.460Z,2.53
2018-08-12T06:02:36.732Z,1.77
2018-08-12T06:05:04.744Z,2.30
2018-08-12T06:07:32.428Z,2.53
2018-08-12T06:09:59.931Z,2.53
2018-08-12T06:12:27.172Z,2.20
2018-08-12T06:14:54.456Z,2.40
2018-08-12T06:17:21.760Z,2.53
2018-08-12T06:19:48.966Z,3.10
2018-08-12T06:22:16.217Z,2.43
2018-08-12T06:24:43.452Z,3.13
2018-08-12T06:27:10.714Z,2.50
2018-08-12T06:29:37.936Z,2.17
2018-08-12T06:32:05.225Z,2.50
2018-08-12T06:34:32.566Z,2.30
2018-08-12T06:36:59.937Z,2.20
2018-08-12T06:39:27.176Z,2.37
2018-08-12T06:41:54.412Z,2.63
2018-08-12T06:44:21.701Z,2.20
2018-08-12T06:46:48.958Z,2.57
2018-08-12T06:49:16.217Z,2.30
2018-08-12T06:51:43.796Z,2.40
2018-08-12T06:54:11.607Z,2.50
2018-08-12T06:56:38.879Z,2.60
2018-08-12T06:59:06.133Z,2.53
2018-08-12T07:01:33.368Z,2.80
2018-08-12T07:04:00.612Z,2.70
2018-08-12T07:06:27.852Z,2.37
2018-08-12T07:08:55.145Z,2.60
2018-08-12T07:11:22.391Z,2.80
2018-08-12T07:13:49.659Z,2.87
2018-08-12T07:16:16.896Z,3.23
2018-08-12T07:18:44.153Z,2.77
2018-08-12T07:21:11.416Z,2.73
2018-08-12T07:23:38.705Z,3.10
2018-08-12T07:26:05.924Z,2.27
2018-08-12T07:28:33.176Z,2.67
2018-08-12T07:31:00.434Z,2.60
2018-08-12T07:33:27.667Z,3.10
2018-08-12T07:35:54.903Z,3.10
2018-08-12T07:38:22.187Z,2.50
2018-08-12T07:40:49.429Z,3.63
2018-08-12T07:43:16.652Z,2.43
2018-08-12T07:45:43.914Z,3.00
2018-08-12T07:48:11.156Z,2.60
2018-08-12T07:50:38.421Z,2.80
2018-08-12T07:53:12.252Z,2.40
2018-08-12T07:55:39.558Z,2.90
2018-08-12T07:58:06.748Z,2.73
2018-08-12T08:00:34.002Z,2.47
2018-08-12T08:03:01.239Z,2.43
2018-08-12T08:05:29.827Z,2.20
2018-08-12T08:07:57.148Z,2.40
2018-08-12T08:10:24.396Z,2.60
2018-08-12T08:12:51.671Z,2.53
2018-08-12T08:15:19.543Z,2.30
2018-08-12T08:17:46.792Z,2.57
2018-08-12T08:20:14.954Z,2.13
2018-08-12T08:22:42.335Z,1.90
2018-08-12T08:25:10.496Z,1.83
2018-08-12T08:27:37.828Z,2.03
2018-08-12T08:30:06.035Z,1.93
2018-08-12T08:32:33.278Z,1.90
2018-08-12T08:35:00.523Z,2.07
2018-08-12T08:37:27.977Z,2.20
2018-08-12T08:40:01.968Z,1.70
2018-08-12T08:42:29.224Z,1.80
2018-08-12T08:44:56.493Z,2.13
2018-08-12T08:47:24.060Z,2.13
2018-08-12T08:49:51.346Z,2.60
2018-08-12T08:52:18.601Z,2.53
2018-08-12T08:54:45.874Z,1.67
2018-08-12T08:57:13.184Z,1.77
2018-08-12T08:59:40.408Z,1.50
2018-08-12T09:02:07.666Z,1.67
2018-08-12T09:04:34.906Z,1.67
2018-08-12T09:07:02.173Z,1.63
2018-08-12T09:09:29.437Z,1.70
2018-08-12T09:11:56.704Z,1.63
2018-08-12T09:14:23.952Z,1.00
2018-08-12T09:16:51.206Z,1.63
2018-08-12T09:19:18.477Z,1.27
2018-08-12T09:21:45.716Z,1.30
2018-08-12T09:24:13.032Z,1.00
2018-08-12T09:26:40.272Z,1.30
2018-08-12T09:29:07.567Z,1.43
2018-08-12T09:31:34.825Z,1.60
2018-08-12T09:34:02.047Z,1.43
2018-08-12T09:36:29.411Z,1.17
2018-08-12T09:38:57.361Z,1.30
2018-08-12T09:41:24.612Z,1.30
2018-08-12T09:43:51.884Z,1.27
2018-08-12T09:46:19.112Z,1.23
2018-08-12T09:48:46.520Z,1.30
2018-08-12T09:51:13.745Z,1.70
2018-08-12T09:53:41.292Z,1.10
2018-08-12T09:56:08.621Z,1.20
2018-08-12T09:58:35.889Z,1.63
2018-08-12T10:01:03.152Z,0.97
2018-08-12T10:03:30.420Z,1.37
2018-08-12T10:05:57.748Z,1.80
2018-08-12T10:08:25.011Z,1.43
2018-08-12T10:10:52.281Z,1.60
2018-08-12T10:13:19.520Z,1.90
2018-08-12T10:15:46.748Z,1.57
2018-08-12T10:18:14.181Z,1.30
2018-08-12T10:20:41.599Z,1.50
2018-08-12T10:23:08.973Z,1.20
2018-08-12T10:25:36.269Z,1.50
2018-08-12T10:28:03.699Z,1.20
2018-08-12T10:30:30.977Z,1.43
2018-08-12T10:32:58.277Z,1.50
2018-08-12T10:35:25.584Z,1.43
2018-08-12T10:37:52.844Z,1.33
2018-08-12T10:40:20.953Z,1.30
2018-08-12T10:42:49.076Z,1.30
2018-08-12T10:45:16.632Z,1.67
2018-08-12T10:47:43.964Z,1.43
2018-08-12T10:50:13.117Z,1.40
2018-08-12T10:52:41.780Z,1.27
2018-08-12T10:55:09.506Z,1.10
2018-08-12T10:57:36.966Z,1.30
2018-08-12T11:00:05.828Z,1.40
2018-08-12T11:02:33.143Z,1.10
2018-08-12T11:05:00.457Z,1.00
2018-08-12T11:07:27.826Z,1.17
2018-08-12T11:09:55.192Z,1.00
2018-08-12T11:12:22.492Z,1.13
2018-08-12T11:14:49.728Z,1.30
2018-08-12T11:17:16.988Z,0.90
2018-08-12T11:19:44.320Z,1.10
2018-08-12T11:22:11.576Z,1.33
2018-08-12T11:24:45.345Z,0.90
2018-08-12T11:27:12.608Z,1.63
2018-08-12T11:29:39.877Z,1.10
2018-08-12T11:32:07.123Z,1.40
2018-08-12T11:34:34.490Z,1.13
2018-08-12T11:37:01.725Z,0.87
2018-08-12T11:39:29.024Z,1.00
2018-08-12T11:41:56.269Z,1.10
2018-08-12T11:44:23.520Z,1.20
2018-08-12T11:46:50.768Z,0.90
2018-08-12T11:49:18.046Z,1.17
2018-08-12T11:51:45.359Z,1.03
2018-08-12T11:54:12.612Z,1.10
2018-08-12T11:56:39.888Z,1.10
2018-08-12T11:59:07.208Z,0.80
2018-08-12T12:01:34.489Z,1.03
2018-08-12T12:04:02.046Z,1.10
2018-08-12T12:06:29.099Z,0.77
2018-08-12T12:08:56.346Z,0.80
2018-08-12T12:11:23.627Z,0.80
2018-08-12T12:13:50.869Z,0.70
2018-08-12T12:16:18.181Z,0.70
2018-08-12T12:18:45.563Z,0.70
2018-08-12T12:21:12.840Z,0.70
2018-08-12T12:23:40.128Z,0.90
2018-08-12T12:26:07.498Z,0.80
2018-08-12T12:28:34.853Z,0.70
2018-08-12T12:31:02.195Z,0.80
2018-08-12T12:33:29.445Z,1.10
2018-08-12T12:35:56.817Z,0.80
2018-08-12T12:38:24.079Z,0.70
2018-08-12T12:40:51.316Z,0.77
2018-08-12T12:43:18.607Z,0.63
2018-08-12T12:45:46.025Z,0.97
2018-08-12T12:48:13.282Z,1.30
2018-08-12T12:50:40.559Z,0.77
2018-08-12T12:53:07.805Z,1.17
2018-08-12T12:55:35.069Z,0.77
2018-08-12T12:58:02.372Z,0.50
2018-08-12T13:00:29.620Z,0.60
2018-08-12T13:02:56.900Z,0.70
2018-08-12T13:05:24.157Z,0.73
2018-08-12T13:07:51.837Z,0.70
2018-08-12T13:10:19.464Z,1.00
2018-08-12T13:12:46.761Z,0.60
2018-08-12T13:15:14.878Z,0.60
2018-08-12T13:17:42.148Z,0.97
2018-08-12T13:20:14.401Z,0.73
2018-08-12T13:22:42.376Z,0.70
2018-08-12T13:25:12.400Z,0.73
2018-08-12T13:27:39.701Z,0.70
2018-08-12T13:30:07.538Z,0.50
2018-08-12T13:32:34.897Z,0.93
2018-08-12T13:35:02.176Z,0.57
2018-08-12T13:37:29.469Z,0.87
2018-08-12T13:39:56.783Z,0.73
2018-08-12T13:42:24.058Z,0.70
2018-08-12T13:44:51.317Z,0.73
2018-08-12T13:47:18.626Z,0.70
2018-08-12T13:49:46.052Z,0.70
2018-08-12T13:52:13.313Z,0.80
2018-08-12T13:54:40.607Z,0.63
2018-08-12T13:57:08.018Z,0.50
2018-08-12T13:59:35.318Z,0.53
2018-08-12T14:02:02.620Z,0.70
2018-08-12T14:04:29.932Z,0.80
2018-08-12T14:06:57.318Z,0.93
2018-08-12T14:09:24.561Z,0.63
2018-08-12T14:11:51.936Z,0.93
2018-08-12T14:14:19.178Z,1.00
2018-08-12T14:16:46.449Z,0.83
2018-08-12T14:19:13.696Z,0.57
2018-08-12T14:21:41.000Z,0.60
2018-08-12T14:24:08.246Z,0.83
2018-08-12T14:29:09.247Z,0.73
2018-08-12T14:31:36.490Z,0.70
2018-08-12T14:34:03.806Z,0.80
2018-08-12T14:36:31.197Z,0.70
2018-08-12T14:38:58.467Z,0.80
2018-08-12T14:41:25.688Z,0.87
2018-08-12T14:43:52.921Z,0.80
2018-08-12T14:46:20.215Z,0.83
2018-08-12T14:48:47.553Z,0.93
2018-08-12T14:51:14.851Z,0.93
2018-08-12T14:53:42.180Z,0.90
2018-08-12T14:56:09.524Z,1.20
2018-08-12T14:58:36.866Z,1.17
2018-08-12T15:01:04.116Z,0.87
2018-08-12T15:03:31.404Z,0.87
2018-08-12T15:05:58.695Z,0.87
2018-08-12T15:08:25.963Z,1.00
2018-08-12T15:10:53.221Z,0.80
2018-08-12T15:13:20.491Z,0.80
2018-08-12T15:15:47.747Z,0.90
2018-08-12T15:18:15.026Z,0.80
2018-08-12T15:20:42.283Z,0.83
2018-08-12T15:23:09.604Z,0.60
2018-08-12T15:25:36.951Z,0.70
2018-08-12T15:28:04.225Z,0.90
2018-08-12T15:30:31.484Z,0.80
2018-08-12T15:32:58.770Z,1.20
2018-08-12T15:35:26.064Z,1.40
2018-08-12T15:37:53.324Z,1.03
2018-08-12T15:42:54.304Z,0.90
2018-08-12T15:45:21.578Z,1.00
2018-08-12T15:47:48.898Z,0.90
2018-08-12T15:50:16.205Z,0.80
2018-08-12T15:52:44.898Z,1.23
2018-08-12T15:55:12.591Z,1.37
2018-08-12T15:57:39.870Z,1.00
2018-08-12T16:00:09.645Z,1.17
2018-08-12T16:02:36.905Z,0.80
2018-08-12T16:05:04.448Z,1.20
2018-08-12T16:07:31.698Z,1.10
2018-08-12T16:09:58.984Z,1.03
2018-08-12T16:15:00.015Z,1.40
2018-08-12T16:17:27.288Z,1.13
2018-08-12T16:19:54.619Z,1.00
2018-08-12T16:22:21.907Z,1.10
2018-08-12T16:24:49.145Z,0.80
2018-08-12T16:27:16.420Z,1.10
2018-08-12T16:29:43.715Z,0.90
2018-08-12T16:32:10.965Z,1.17
2018-08-12T16:34:38.237Z,1.20
2018-08-12T16:37:05.583Z,1.17
2018-08-12T16:39:32.885Z,1.70
2018-08-12T16:42:00.120Z,1.37
2018-08-12T16:44:27.402Z,1.30
2018-08-12T16:46:54.673Z,1.13
2018-08-12T16:49:22.125Z,1.60
2018-08-12T16:51:49.288Z,1.40
2018-08-12T16:54:16.626Z,1.07
2018-08-12T16:56:43.949Z,1.30
2018-08-12T16:59:11.247Z,1.00
2018-08-12T17:01:38.507Z,1.37
2018-08-12T17:04:05.791Z,0.90
2018-08-12T17:06:33.024Z,1.17
2018-08-12T17:09:00.392Z,1.37
2018-08-12T17:11:27.715Z,1.37
2018-08-12T17:13:54.982Z,2.00
2018-08-12T17:16:22.557Z,1.33
2018-08-12T17:18:49.862Z,1.23
2018-08-12T17:21:17.139Z,1.60
2018-08-12T17:23:44.521Z,1.93
2018-08-12T17:26:11.807Z,1.90
2018-08-12T17:28:39.080Z,1.50
2018-08-12T17:31:06.386Z,1.70
2018-08-12T17:33:33.722Z,1.40
2018-08-12T17:36:00.999Z,1.70
2018-08-12T17:38:28.281Z,1.27
2018-08-12T17:40:55.562Z,1.37
2018-08-12T17:43:22.846Z,1.50
2018-08-12T17:45:50.106Z,1.50
2018-08-12T17:48:17.562Z,1.90
2018-08-12T17:50:44.652Z,1.67
2018-08-12T17:53:11.957Z,1.60
2018-08-12T17:55:39.401Z,1.57
2018-08-12T17:58:06.865Z,2.13
2018-08-12T18:00:34.199Z,1.70
2018-08-12T18:03:01.577Z,1.70
2018-08-12T18:05:28.789Z,2.00
2018-08-12T18:07:56.044Z,2.20
2018-08-12T18:10:23.329Z,2.20
2018-08-12T18:12:50.617Z,2.43
2018-08-12T18:15:17.876Z,1.73
2018-08-12T18:17:45.145Z,1.50
2018-08-12T18:20:12.416Z,1.60
2018-08-12T18:22:40.637Z,2.40
2018-08-12T18:25:09.425Z,1.97
2018-08-12T18:27:36.733Z,1.60
2018-08-12T18:30:04.991Z,2.17
2018-08-12T18:32:32.366Z,1.80
2018-08-12T18:34:59.637Z,2.00
2018-08-12T18:37:26.942Z,2.40
2018-08-12T18:39:54.221Z,2.10
2018-08-12T18:42:21.898Z,1.50
2018-08-12T18:44:49.224Z,2.00
2018-08-12T18:47:16.593Z,1.97
2018-08-12T18:49:43.971Z,2.10
2018-08-12T18:52:11.234Z,1.80
2018-08-12T18:54:38.593Z,1.73
2018-08-12T18:57:05.914Z,2.03
2018-08-12T18:59:33.199Z,2.00
2018-08-12T19:02:00.448Z,1.87
2018-08-12T19:04:27.754Z,2.03
2018-08-12T19:06:55.095Z,1.97
2018-08-12T19:09:22.381Z,1.77
2018-08-12T19:11:49.660Z,3.00
2018-08-12T19:14:16.935Z,1.70
2018-08-12T19:16:44.877Z,2.27
2018-08-12T19:19:12.201Z,2.00
2018-08-12T19:21:39.505Z,1.90
2018-08-12T19:24:06.898Z,1.70
2018-08-12T19:26:44.375Z,2.20
2018-08-12T19:29:11.663Z,1.90
2018-08-12T19:31:39.176Z,2.50
2018-08-12T19:34:06.524Z,2.20
2018-08-12T19:36:33.833Z,1.87
2018-08-12T19:39:01.247Z,2.00
2018-08-12T19:41:28.570Z,2.60
2018-08-12T19:43:55.869Z,2.70
2018-08-12T19:46:23.152Z,2.17
2018-08-12T19:48:50.532Z,2.30
2018-08-12T19:51:18.030Z,2.33
2018-08-12T19:53:45.292Z,2.60
2018-08-12T19:56:12.609Z,2.37
2018-08-12T19:58:39.906Z,2.67
2018-08-12T20:01:07.184Z,2.50
2018-08-12T20:03:34.466Z,2.57
2018-08-12T20:06:01.842Z,1.97
2018-08-12T20:08:29.206Z,2.60
2018-08-12T20:10:56.485Z,1.87
2018-08-12T20:13:23.740Z,2.53
2018-08-12T20:15:51.085Z,2.30
2018-08-12T20:18:18.397Z,2.33
2018-08-12T20:20:45.882Z,2.13
2018-08-12T20:23:13.182Z,2.47
2018-08-12T20:25:40.450Z,2.17
2018-08-12T20:28:07.857Z,1.90
2018-08-12T20:30:35.170Z,2.30
2018-08-12T20:33:02.533Z,2.10
2018-08-12T20:35:29.874Z,2.10
2018-08-12T20:37:57.273Z,2.97
2018-08-12T20:40:24.542Z,1.43
2018-08-12T20:42:51.794Z,2.40
2018-08-12T20:45:19.089Z,2.50
2018-08-12T20:47:46.348Z,2.60
2018-08-12T20:50:13.629Z,2.20
2018-08-12T20:52:40.909Z,2.10
2018-08-12T20:55:08.742Z,2.30
2018-08-12T20:57:36.038Z,2.20
2018-08-12T21:00:04.350Z,2.27
2018-08-12T21:02:31.601Z,2.13
2018-08-12T21:04:58.913Z,1.73
2018-08-12T21:07:26.184Z,2.20
2018-08-12T21:09:53.504Z,2.23
2018-08-12T21:12:20.840Z,2.77
2018-08-12T21:14:48.117Z,2.50
2018-08-12T21:17:15.650Z,2.27
2018-08-12T21:19:42.981Z,2.10
2018-08-12T21:22:10.241Z,2.77
2018-08-12T21:24:37.690Z,2.13
2018-08-12T21:27:04.945Z,2.60
2018-08-12T21:29:32.206Z,2.20
2018-08-12T21:32:00.313Z,2.50
2018-08-12T21:34:27.587Z,2.27
2018-08-12T21:36:54.857Z,2.43
2018-08-12T21:39:22.138Z,2.60
2018-08-12T21:41:49.400Z,2.40
2018-08-12T21:44:16.649Z,2.20
2018-08-12T21:46:43.902Z,2.83
2018-08-12T21:49:11.133Z,2.30
2018-08-12T21:51:38.407Z,2.43
2018-08-12T21:54:05.654Z,2.00
2018-08-12T21:56:33.085Z,2.47
2018-08-12T21:59:00.337Z,1.93
2018-08-12T22:01:27.731Z,2.60
2018-08-12T22:03:55.243Z,2.33
2018-08-12T22:06:22.538Z,1.93
2018-08-12T22:08:49.771Z,2.17
2018-08-12T22:11:17.010Z,2.30
2018-08-12T22:13:44.281Z,2.03
2018-08-12T22:16:11.538Z,2.30
2018-08-12T22:18:38.820Z,2.63
2018-08-12T22:21:06.085Z,2.60
2018-08-12T22:23:33.410Z,2.37
2018-08-12T22:26:00.689Z,2.10
2018-08-12T22:28:27.953Z,2.53
2018-08-12T22:30:55.204Z,2.37
2018-08-12T22:33:22.476Z,2.43
2018-08-12T22:35:49.763Z,2.33
2018-08-12T22:38:17.019Z,2.17
2018-08-12T22:40:44.300Z,2.13
2018-08-12T22:43:11.540Z,2.50
2018-08-12T22:45:38.865Z,2.27
2018-08-12T22:48:06.337Z,3.43
2018-08-12T22:50:33.609Z,2.80
2018-08-12T22:53:00.854Z,3.33
2018-08-12T22:55:28.352Z,3.07
2018-08-12T22:57:55.610Z,1.97
2018-08-12T23:00:22.905Z,2.20
2018-08-12T23:02:50.229Z,2.43
2018-08-12T23:05:17.512Z,2.53
2018-08-12T23:07:44.824Z,3.10
2018-08-12T23:10:12.031Z,2.70
2018-08-12T23:12:39.750Z,2.40
2018-08-12T23:15:12.942Z,2.70
2018-08-12T23:17:40.218Z,2.50
2018-08-12T23:20:07.446Z,2.00
2018-08-12T23:22:34.690Z,2.60
2018-08-12T23:25:01.934Z,2.40
2018-08-12T23:27:29.313Z,2.30
2018-08-12T23:29:56.569Z,2.00
2018-08-12T23:32:23.815Z,2.53
2018-08-12T23:34:51.149Z,2.10
2018-08-12T23:37:18.397Z,2.07
2018-08-12T23:39:45.657Z,2.50
2018-08-12T23:42:13.025Z,2.10
2018-08-12T23:44:40.279Z,2.40
2018-08-12T23:47:07.529Z,2.50
2018-08-12T23:49:34.777Z,2.40
2018-08-12T23:52:02.168Z,2.27
2018-08-12T23:54:29.444Z,2.50
2018-08-12T23:56:56.692Z,2.67
2018-08-12T23:59:23.919Z,2.53
